Hermann - S — V2EI6 — position and weather

sailwx.info

Track history (hours):
 
Tides and Currents Weather Stations Pressure Air Temp Water Temp Dewpoint Dewpoint Depression Visibility Wind Speed Wind Dir Waves Ship Positions

Hermann - S

Last reported at 2015-Aug-19 18:12 UTC. Time now 2015-Aug-28 19:10 UTC.
Position N 29°12' E 032°43'.
Warning: this ship's position is 9 days out of date.

Length 190 m; draft 12.8 m.

Type: Cargo ship. MMSI: 305441000.

Date/timePositionNaut miles runAvg speedWind from/ knotsBaromVisibWave heightAir tempDewpointWater temp
2015-Aug-19 18:12N 29°12' E 032°43'132 4.9
2015-Aug-18 15:32N 31°23' E 032°20'3411.5
2015-Aug-18 12:33N 31°48' E 031°53'1513.3
2015-Aug-18 11:26N 31°58' E 031°40'1213.3
2015-Aug-18 10:32N 32°08' E 031°31'2713.4
2015-Aug-18 08:33N 32°27' E 031°10'1413.6
2015-Aug-18 07:33N 32°38' E 030°59'1313.4
2015-Aug-18 06:33N 32°48' E 030°49'5313.2
2015-Aug-18 02:33N 33°27' E 030°06'18113.7
2015-Aug-17 13:25N 35°41' E 027°40'5313.5
2015-Aug-17 09:29N 36°21' E 026°57'1313.4
2015-Aug-17 08:33N 36°30' E 026°46'1313.3
2015-Aug-17 07:33N 36°40' E 026°35'1413.5
2015-Aug-17 06:33N 36°50' E 026°24'1313.3
2015-Aug-17 05:33N 37°00' E 026°13'1313.0
2015-Aug-17 04:32N 37°12' E 026°06'1312.9
2015-Aug-17 03:33N 37°24' E 025°59'1612.6
2015-Aug-17 02:19N 37°39' E 025°54'1112.5
2015-Aug-17 01:24N 37°50' E 025°52'1112.5
2015-Aug-17 00:30N 38°01' E 025°50'  
2015-Aug-14 17:34N 43°15' E 034°12'1212.5
2015-Aug-14 16:34N 43°21' E 034°27'1312.7
2015-Aug-14 15:34N 43°26' E 034°43'1313.0
2015-Aug-14 14:34N 43°32' E 034°59'1413.2
2015-Aug-14 13:29N 43°38' E 035°17'1213.2
2015-Aug-14 12:34N 43°44' E 035°31'4 4.2
2015-Aug-14 11:33N 43°46' E 035°37'9 9.3
2015-Aug-14 10:33N 43°49' E 035°49'1312.6
2015-Aug-14 09:34N 43°55' E 036°04'2812.8
2015-Aug-14 07:24N 44°07' E 036°39'1113.4
2015-Aug-14 06:33N 44°13' E 036°52'1313.4
2015-Aug-14 05:33N 44°20' E 037°08'1312.9
2015-Aug-14 04:33N 44°26' E 037°24'1313.0
2015-Aug-14 03:33N 44°32' E 037°40'1010.4
2015-Aug-14 02:34N 44°40' E 037°50'1 0.9
2015-Aug-14 01:32N 44°41' E 037°51'0 0.0
2015-Aug-14 00:32N 44°41' E 037°51'0 0.0
2015-Aug-13 23:32N 44°41' E 037°51'0 0.0
2015-Aug-13 22:32N 44°41' E 037°51'0 0.0
2015-Aug-13 21:32N 44°41' E 037°51'0 0.0
2015-Aug-13 20:32N 44°41' E 037°51'0 0.0
2015-Aug-13 19:32N 44°41' E 037°51'0 0.0
2015-Aug-13 18:32N 44°41' E 037°51'0 0.0
2015-Aug-13 17:32N 44°41' E 037°51'0 0.0
2015-Aug-13 16:32N 44°41' E 037°51'0 0.0
2015-Aug-13 15:32N 44°41' E 037°51'0 0.0
2015-Aug-13 14:32N 44°41' E 037°51'0 0.0
2015-Aug-13 13:32N 44°41' E 037°51'0 0.0
2015-Aug-13 12:32N 44°41' E 037°51'0 0.0
2015-Aug-13 11:32N 44°41' E 037°51'0 0.0
2015-Aug-13 10:32N 44°41' E 037°51'0 0.0
2015-Aug-13 09:32N 44°41' E 037°51'0 0.0
2015-Aug-13 08:32N 44°41' E 037°51'0 0.0
2015-Aug-13 07:32N 44°41' E 037°51'0 0.0
2015-Aug-13 06:32N 44°41' E 037°51'0 0.0
2015-Aug-13 05:32N 44°41' E 037°51'0 0.0
2015-Aug-13 04:32N 44°41' E 037°51'0 0.0
2015-Aug-13 03:32N 44°41' E 037°51'0 0.0
2015-Aug-13 02:29N 44°41' E 037°51'0 0.0
2015-Aug-13 01:32N 44°41' E 037°51'0 0.0
2015-Aug-13 00:32N 44°41' E 037°51'0 0.0
2015-Aug-12 23:32N 44°41' E 037°51'0 0.0
2015-Aug-12 22:32N 44°41' E 037°51'0 0.0
2015-Aug-12 21:32N 44°41' E 037°51'0 0.0
2015-Aug-12 07:26N 44°41' E 037°51'0 0.0
2015-Aug-12 06:32N 44°41' E 037°51'0 0.0
2015-Aug-12 05:32N 44°41' E 037°51'0 0.0
2015-Aug-11 17:32N 44°40' E 037°51'0 0.0
2015-Aug-11 16:32N 44°40' E 037°51'0 0.3
2015-Aug-11 15:32N 44°40' E 037°51'0 0.0
2015-Aug-11 14:32N 44°40' E 037°51'0 0.0
2015-Aug-11 13:32N 44°40' E 037°51'0 0.0
2015-Aug-11 12:32N 44°41' E 037°51'0 0.0
2015-Aug-11 11:32N 44°41' E 037°51'0 0.0
2015-Aug-11 10:32N 44°41' E 037°51'0 0.0
2015-Aug-11 09:32N 44°41' E 037°51'0 0.0
2015-Aug-11 08:32N 44°41' E 037°51'0 0.0
2015-Aug-11 07:32N 44°41' E 037°51'0 0.0
2015-Aug-11 06:32N 44°41' E 037°51'0 0.0
2015-Aug-11 05:32N 44°41' E 037°51'0 0.0
2015-Aug-11 04:32N 44°41' E 037°51'0 0.0
2015-Aug-11 03:32N 44°41' E 037°51'0 0.1
2015-Aug-11 02:32N 44°41' E 037°51'0 0.0
2015-Aug-11 01:32N 44°40' E 037°51'0 0.0
2015-Aug-11 00:32N 44°41' E 037°51'0 0.1
2015-Aug-10 23:32N 44°40' E 037°51'0 0.1
2015-Aug-10 22:32N 44°41' E 037°51'0 0.0
2015-Aug-10 21:32N 44°41' E 037°51'0 0.0
2015-Aug-10 20:32N 44°41' E 037°51'0 0.0
2015-Aug-10 19:32N 44°41' E 037°51'0 0.0
2015-Aug-10 18:32N 44°41' E 037°51'0 0.1
2015-Aug-10 17:32N 44°41' E 037°51'0 0.0
2015-Aug-10 16:32N 44°41' E 037°51'0 0.0
2015-Aug-10 15:32N 44°41' E 037°51'0 0.0
2015-Aug-10 14:32N 44°41' E 037°51'0 0.0
2015-Aug-10 13:32N 44°41' E 037°51'0 0.0
2015-Aug-10 12:32N 44°41' E 037°51'1 1.4
2015-Aug-10 11:33N 44°41' E 037°49'3 2.8
2015-Aug-10 10:33N 44°44' E 037°47'0 0.0
2015-Aug-10 09:33N 44°44' E 037°47'0 0.0
2015-Aug-10 08:33N 44°44' E 037°47'0 0.0
2015-Aug-10 07:33N 44°44' E 037°47'0 0.0
2015-Aug-10 06:33N 44°44' E 037°47'0 0.0
2015-Aug-10 05:33N 44°44' E 037°47'0 0.0
2015-Aug-10 04:33N 44°44' E 037°47'0 0.0
2015-Aug-10 03:33N 44°44' E 037°47'0 0.0
2015-Aug-10 02:33N 44°44' E 037°47'0 0.0
2015-Aug-10 01:33N 44°44' E 037°47'0 0.0
2015-Aug-10 00:33N 44°44' E 037°47'0 0.0
2015-Aug-09 23:33N 44°44' E 037°47'0 0.0
2015-Aug-09 22:33N 44°44' E 037°47'0 0.0
2015-Aug-09 21:33N 44°44' E 037°47'0 0.0
2015-Aug-09 20:33N 44°44' E 037°47'0 0.0
2015-Aug-09 19:33N 44°44' E 037°47'0 0.0
2015-Aug-09 18:33N 44°44' E 037°47'  
Track history (hours):
 
Tides and Currents Weather Stations Pressure Air Temp Water Temp Dewpoint Dewpoint Depression Visibility Wind Speed Wind Dir Waves Ship Positions

Hermann - S

Last reported at 2015-Aug-19 18:12 UTC. Time now 2015-Aug-28 19:10 UTC.
Position N 29°12' E 032°43'.
Warning: this ship's position is 9 days out of date.

Length 190 m; draft 12.8 m.

Type: Cargo ship. MMSI: 305441000.

Date/timePositionNaut miles runAvg speedWind from/ knotsBaromVisibWave heightAir tempDewpointWater temp
2015-Aug-19 18:12N 29°12' E 032°43'132 4.9
2015-Aug-18 15:32N 31°23' E 032°20'3411.5
2015-Aug-18 12:33N 31°48' E 031°53'1513.3
2015-Aug-18 11:26N 31°58' E 031°40'1213.3
2015-Aug-18 10:32N 32°08' E 031°31'2713.4
2015-Aug-18 08:33N 32°27' E 031°10'1413.6
2015-Aug-18 07:33N 32°38' E 030°59'1313.4
2015-Aug-18 06:33N 32°48' E 030°49'5313.2
2015-Aug-18 02:33N 33°27' E 030°06'18113.7
2015-Aug-17 13:25N 35°41' E 027°40'5313.5
2015-Aug-17 09:29N 36°21' E 026°57'1313.4
2015-Aug-17 08:33N 36°30' E 026°46'1313.3
2015-Aug-17 07:33N 36°40' E 026°35'1413.5
2015-Aug-17 06:33N 36°50' E 026°24'1313.3
2015-Aug-17 05:33N 37°00' E 026°13'1313.0
2015-Aug-17 04:32N 37°12' E 026°06'1312.9
2015-Aug-17 03:33N 37°24' E 025°59'1612.6
2015-Aug-17 02:19N 37°39' E 025°54'1112.5
2015-Aug-17 01:24N 37°50' E 025°52'1112.5
2015-Aug-17 00:30N 38°01' E 025°50'  
2015-Aug-14 17:34N 43°15' E 034°12'1212.5
2015-Aug-14 16:34N 43°21' E 034°27'1312.7
2015-Aug-14 15:34N 43°26' E 034°43'1313.0
2015-Aug-14 14:34N 43°32' E 034°59'1413.2
2015-Aug-14 13:29N 43°38' E 035°17'1213.2
2015-Aug-14 12:34N 43°44' E 035°31'4 4.2
2015-Aug-14 11:33N 43°46' E 035°37'9 9.3
2015-Aug-14 10:33N 43°49' E 035°49'1312.6
2015-Aug-14 09:34N 43°55' E 036°04'2812.8
2015-Aug-14 07:24N 44°07' E 036°39'1113.4
2015-Aug-14 06:33N 44°13' E 036°52'1313.4
2015-Aug-14 05:33N 44°20' E 037°08'1312.9
2015-Aug-14 04:33N 44°26' E 037°24'1313.0
2015-Aug-14 03:33N 44°32' E 037°40'1010.4
2015-Aug-14 02:34N 44°40' E 037°50'1 0.9
2015-Aug-14 01:32N 44°41' E 037°51'0 0.0
2015-Aug-14 00:32N 44°41' E 037°51'0 0.0
2015-Aug-13 23:32N 44°41' E 037°51'0 0.0
2015-Aug-13 22:32N 44°41' E 037°51'0 0.0
2015-Aug-13 21:32N 44°41' E 037°51'0 0.0
2015-Aug-13 20:32N 44°41' E 037°51'0 0.0
2015-Aug-13 19:32N 44°41' E 037°51'0 0.0
2015-Aug-13 18:32N 44°41' E 037°51'0 0.0
2015-Aug-13 17:32N 44°41' E 037°51'0 0.0
2015-Aug-13 16:32N 44°41' E 037°51'0 0.0
2015-Aug-13 15:32N 44°41' E 037°51'0 0.0
2015-Aug-13 14:32N 44°41' E 037°51'0 0.0
2015-Aug-13 13:32N 44°41' E 037°51'0 0.0
2015-Aug-13 12:32N 44°41' E 037°51'0 0.0
2015-Aug-13 11:32N 44°41' E 037°51'0 0.0
2015-Aug-13 10:32N 44°41' E 037°51'0 0.0
2015-Aug-13 09:32N 44°41' E 037°51'0 0.0
2015-Aug-13 08:32N 44°41' E 037°51'0 0.0
2015-Aug-13 07:32N 44°41' E 037°51'0 0.0
2015-Aug-13 06:32N 44°41' E 037°51'0 0.0
2015-Aug-13 05:32N 44°41' E 037°51'0 0.0
2015-Aug-13 04:32N 44°41' E 037°51'0 0.0
2015-Aug-13 03:32N 44°41' E 037°51'0 0.0
2015-Aug-13 02:29N 44°41' E 037°51'0 0.0
2015-Aug-13 01:32N 44°41' E 037°51'0 0.0
2015-Aug-13 00:32N 44°41' E 037°51'0 0.0
2015-Aug-12 23:32N 44°41' E 037°51'0 0.0
2015-Aug-12 22:32N 44°41' E 037°51'0 0.0
2015-Aug-12 21:32N 44°41' E 037°51'0 0.0
2015-Aug-12 07:26N 44°41' E 037°51'0 0.0
2015-Aug-12 06:32N 44°41' E 037°51'0 0.0
2015-Aug-12 05:32N 44°41' E 037°51'0 0.0
2015-Aug-11 17:32N 44°40' E 037°51'0 0.0
2015-Aug-11 16:32N 44°40' E 037°51'0 0.3
2015-Aug-11 15:32N 44°40' E 037°51'0 0.0
2015-Aug-11 14:32N 44°40' E 037°51'0 0.0
2015-Aug-11 13:32N 44°40' E 037°51'0 0.0
2015-Aug-11 12:32N 44°41' E 037°51'0 0.0
2015-Aug-11 11:32N 44°41' E 037°51'0 0.0
2015-Aug-11 10:32N 44°41' E 037°51'0 0.0
2015-Aug-11 09:32N 44°41' E 037°51'0 0.0
2015-Aug-11 08:32N 44°41' E 037°51'0 0.0
2015-Aug-11 07:32N 44°41' E 037°51'0 0.0
2015-Aug-11 06:32N 44°41' E 037°51'0 0.0
2015-Aug-11 05:32N 44°41' E 037°51'0 0.0
2015-Aug-11 04:32N 44°41' E 037°51'0 0.0
2015-Aug-11 03:32N 44°41' E 037°51'0 0.1
2015-Aug-11 02:32N 44°41' E 037°51'0 0.0
2015-Aug-11 01:32N 44°40' E 037°51'0 0.0
2015-Aug-11 00:32N 44°41' E 037°51'0 0.1
2015-Aug-10 23:32N 44°40' E 037°51'0 0.1
2015-Aug-10 22:32N 44°41' E 037°51'0 0.0
2015-Aug-10 21:32N 44°41' E 037°51'0 0.0
2015-Aug-10 20:32N 44°41' E 037°51'0 0.0
2015-Aug-10 19:32N 44°41' E 037°51'0 0.0
2015-Aug-10 18:32N 44°41' E 037°51'0 0.1
2015-Aug-10 17:32N 44°41' E 037°51'0 0.0
2015-Aug-10 16:32N 44°41' E 037°51'0 0.0
2015-Aug-10 15:32N 44°41' E 037°51'0 0.0
2015-Aug-10 14:32N 44°41' E 037°51'0 0.0
2015-Aug-10 13:32N 44°41' E 037°51'0 0.0
2015-Aug-10 12:32N 44°41' E 037°51'1 1.4
2015-Aug-10 11:33N 44°41' E 037°49'3 2.8
2015-Aug-10 10:33N 44°44' E 037°47'0 0.0
2015-Aug-10 09:33N 44°44' E 037°47'0 0.0
2015-Aug-10 08:33N 44°44' E 037°47'0 0.0
2015-Aug-10 07:33N 44°44' E 037°47'0 0.0
2015-Aug-10 06:33N 44°44' E 037°47'0 0.0
2015-Aug-10 05:33N 44°44' E 037°47'0 0.0
2015-Aug-10 04:33N 44°44' E 037°47'0 0.0
2015-Aug-10 03:33N 44°44' E 037°47'0 0.0
2015-Aug-10 02:33N 44°44' E 037°47'0 0.0
2015-Aug-10 01:33N 44°44' E 037°47'0 0.0
2015-Aug-10 00:33N 44°44' E 037°47'0 0.0
2015-Aug-09 23:33N 44°44' E 037°47'0 0.0
2015-Aug-09 22:33N 44°44' E 037°47'0 0.0
2015-Aug-09 21:33N 44°44' E 037°47'0 0.0
2015-Aug-09 20:33N 44°44' E 037°47'0 0.0
2015-Aug-09 19:33N 44°44' E 037°47'0 0.0
2015-Aug-09 18:33N 44°44' E 037°47'  

Dump ship's entire track history